sensor_id;sensor_type;location;lat;lon;timestamp;pressure;altitude;pressure_sealevel;temperature;humidity
77212;BME280;66206;0.000;0.000;2023-04-16T00:01:24;97611.32;;;22.71;28.21
77212;BME280;66206;0.000;0.000;2023-04-16T00:03:51;97609.86;;;22.83;28.16
77212;BME280;66206;0.000;0.000;2023-04-16T00:06:18;97612.14;;;22.72;28.21
77212;BME280;66206;0.000;0.000;2023-04-16T00:08:44;97612.55;;;22.86;28.20
77212;BME280;66206;0.000;0.000;2023-04-16T00:11:11;97613.48;;;22.78;28.16
77212;BME280;66206;0.000;0.000;2023-04-16T00:13:37;97613.46;;;22.88;28.09
77212;BME280;66206;0.000;0.000;2023-04-16T00:16:04;97613.47;;;22.47;28.24
77212;BME280;66206;0.000;0.000;2023-04-16T00:18:31;97615.56;;;22.48;28.29
77212;BME280;66206;0.000;0.000;2023-04-16T00:20:58;97617.36;;;22.53;28.21
77212;BME280;66206;0.000;0.000;2023-04-16T00:23:24;97619.66;;;22.64;28.22
77212;BME280;66206;0.000;0.000;2023-04-16T00:25:51;97614.90;;;22.64;28.24
77212;BME280;66206;0.000;0.000;2023-04-16T00:28:18;97613.35;;;22.41;28.31
77212;BME280;66206;0.000;0.000;2023-04-16T00:30:44;97611.35;;;22.52;28.20
77212;BME280;66206;0.000;0.000;2023-04-16T00:33:11;97610.05;;;22.40;28.38
77212;BME280;66206;0.000;0.000;2023-04-16T00:35:37;97609.72;;;22.55;28.26
77212;BME280;66206;0.000;0.000;2023-04-16T00:38:04;97610.67;;;22.35;28.34
77212;BME280;66206;0.000;0.000;2023-04-16T00:40:30;97612.55;;;22.42;28.30
77212;BME280;66206;0.000;0.000;2023-04-16T00:42:57;97612.29;;;22.39;28.35
77212;BME280;66206;0.000;0.000;2023-04-16T00:45:24;97612.29;;;22.37;28.30
77212;BME280;66206;0.000;0.000;2023-04-16T00:47:50;97613.15;;;22.49;28.41
77212;BME280;66206;0.000;0.000;2023-04-16T00:50:17;97611.17;;;22.35;28.39
77212;BME280;66206;0.000;0.000;2023-04-16T00:52:44;97612.06;;;22.30;28.49
77212;BME280;66206;0.000;0.000;2023-04-16T00:55:12;97611.67;;;22.35;28.41
77212;BME280;66206;0.000;0.000;2023-04-16T00:57:38;97613.81;;;22.38;28.38
77212;BME280;66206;0.000;0.000;2023-04-16T01:00:05;97611.02;;;22.25;28.43
77212;BME280;66206;0.000;0.000;2023-04-16T01:02:32;97612.60;;;22.20;28.50
77212;BME280;66206;0.000;0.000;2023-04-16T01:04:59;97612.89;;;22.14;28.52
77212;BME280;66206;0.000;0.000;2023-04-16T01:07:26;97610.98;;;22.15;28.50
77212;BME280;66206;0.000;0.000;2023-04-16T01:09:53;97613.34;;;22.35;28.40
77212;BME280;66206;0.000;0.000;2023-04-16T01:12:19;97616.33;;;22.12;28.57
77212;BME280;66206;0.000;0.000;2023-04-16T01:14:46;97615.22;;;22.02;28.48
77212;BME280;66206;0.000;0.000;2023-04-16T01:17:13;97617.92;;;22.29;28.46
77212;BME280;66206;0.000;0.000;2023-04-16T01:19:39;97614.56;;;22.14;28.50
77212;BME280;66206;0.000;0.000;2023-04-16T01:22:06;97612.89;;;22.10;28.50
77212;BME280;66206;0.000;0.000;2023-04-16T01:24:33;97612.49;;;22.04;28.56
77212;BME280;66206;0.000;0.000;2023-04-16T01:27:00;97616.53;;;22.25;28.37
77212;BME280;66206;0.000;0.000;2023-04-16T01:29:26;97614.80;;;22.15;28.50
77212;BME280;66206;0.000;0.000;2023-04-16T01:31:53;97615.98;;;22.30;28.30
77212;BME280;66206;0.000;0.000;2023-04-16T01:34:19;97614.08;;;22.13;28.47
77212;BME280;66206;0.000;0.000;2023-04-16T01:36:46;97616.66;;;22.20;28.43
77212;BME280;66206;0.000;0.000;2023-04-16T01:39:13;97615.71;;;22.17;28.41
77212;BME280;66206;0.000;0.000;2023-04-16T01:41:39;97615.42;;;22.11;28.45
77212;BME280;66206;0.000;0.000;2023-04-16T01:44:06;97611.44;;;22.12;28.48
77212;BME280;66206;0.000;0.000;2023-04-16T01:46:33;97612.60;;;21.93;28.67
77212;BME280;66206;0.000;0.000;2023-04-16T01:49:00;97615.16;;;21.91;28.66
77212;BME280;66206;0.000;0.000;2023-04-16T01:51:27;97614.28;;;22.02;28.51
77212;BME280;66206;0.000;0.000;2023-04-16T01:53:54;97614.93;;;22.03;28.46
77212;BME280;66206;0.000;0.000;2023-04-16T01:56:20;97611.36;;;21.98;28.52
77212;BME280;66206;0.000;0.000;2023-04-16T01:58:47;97615.02;;;22.03;28.44
77212;BME280;66206;0.000;0.000;2023-04-16T02:01:14;97616.26;;;22.05;28.37
77212;BME280;66206;0.000;0.000;2023-04-16T02:03:40;97613.21;;;22.10;28.43
77212;BME280;66206;0.000;0.000;2023-04-16T02:06:07;97610.76;;;21.98;28.49
77212;BME280;66206;0.000;0.000;2023-04-16T02:08:33;97610.80;;;21.83;28.62
77212;BME280;66206;0.000;0.000;2023-04-16T02:11:00;97611.30;;;22.06;28.38
77212;BME280;66206;0.000;0.000;2023-04-16T02:13:27;97614.05;;;22.00;28.47
77212;BME280;66206;0.000;0.000;2023-04-16T02:15:53;97614.95;;;22.10;28.42
77212;BME280;66206;0.000;0.000;2023-04-16T02:18:20;97613.80;;;22.00;28.47
77212;BME280;66206;0.000;0.000;2023-04-16T02:20:46;97614.22;;;21.98;28.42
77212;BME280;66206;0.000;0.000;2023-04-16T02:23:13;97617.43;;;22.09;28.46
77212;BME280;66206;0.000;0.000;2023-04-16T02:25:40;97617.74;;;21.98;28.44
77212;BME280;66206;0.000;0.000;2023-04-16T02:28:07;97621.15;;;21.79;28.63
77212;BME280;66206;0.000;0.000;2023-04-16T02:30:34;97619.28;;;22.11;28.42
77212;BME280;66206;0.000;0.000;2023-04-16T02:33:01;97623.67;;;21.91;28.61
77212;BME280;66206;0.000;0.000;2023-04-16T02:35:28;97625.13;;;21.78;28.61
77212;BME280;66206;0.000;0.000;2023-04-16T02:37:54;97629.44;;;21.86;28.63
77212;BME280;66206;0.000;0.000;2023-04-16T02:40:21;97627.33;;;21.88;28.67
77212;BME280;66206;0.000;0.000;2023-04-16T02:42:48;97624.75;;;21.73;28.77
77212;BME280;66206;0.000;0.000;2023-04-16T02:45:14;97629.20;;;21.79;28.72
77212;BME280;66206;0.000;0.000;2023-04-16T02:47:41;97631.24;;;21.84;28.56
77212;BME280;66206;0.000;0.000;2023-04-16T02:50:08;97634.04;;;21.84;28.54
77212;BME280;66206;0.000;0.000;2023-04-16T02:52:34;97634.25;;;21.88;28.66
77212;BME280;66206;0.000;0.000;2023-04-16T02:55:01;97634.96;;;21.58;28.84
77212;BME280;66206;0.000;0.000;2023-04-16T02:57:28;97633.38;;;21.63;28.78
77212;BME280;66206;0.000;0.000;2023-04-16T02:59:54;97631.66;;;21.73;28.76
77212;BME280;66206;0.000;0.000;2023-04-16T03:02:21;97634.44;;;21.93;28.55
77212;BME280;66206;0.000;0.000;2023-04-16T03:04:47;97634.10;;;21.76;28.64
77212;BME280;66206;0.000;0.000;2023-04-16T03:07:14;97632.08;;;21.61;28.73
77212;BME280;66206;0.000;0.000;2023-04-16T03:09:40;97631.23;;;21.96;28.53
77212;BME280;66206;0.000;0.000;2023-04-16T03:12:07;97632.11;;;21.96;28.49
77212;BME280;66206;0.000;0.000;2023-04-16T03:14:34;97633.07;;;22.04;28.31
77212;BME280;66206;0.000;0.000;2023-04-16T03:17:00;97634.27;;;22.04;28.42
77212;BME280;66206;0.000;0.000;2023-04-16T03:19:27;97635.11;;;21.92;28.28
77212;BME280;66206;0.000;0.000;2023-04-16T03:21:53;97635.70;;;22.07;28.24
77212;BME280;66206;0.000;0.000;2023-04-16T03:24:20;97640.00;;;22.10;28.31
77212;BME280;66206;0.000;0.000;2023-04-16T03:26:47;97643.20;;;22.17;28.23
77212;BME280;66206;0.000;0.000;2023-04-16T03:29:13;97644.53;;;22.14;28.22
77212;BME280;66206;0.000;0.000;2023-04-16T03:31:40;97645.06;;;22.15;28.15
77212;BME280;66206;0.000;0.000;2023-04-16T03:34:06;97645.96;;;22.22;28.13
77212;BME280;66206;0.000;0.000;2023-04-16T03:36:33;97648.50;;;22.16;28.19
77212;BME280;66206;0.000;0.000;2023-04-16T03:38:59;97649.37;;;22.15;28.12
77212;BME280;66206;0.000;0.000;2023-04-16T03:41:26;97652.20;;;22.08;28.29
77212;BME280;66206;0.000;0.000;2023-04-16T03:43:53;97653.22;;;22.02;28.27
77212;BME280;66206;0.000;0.000;2023-04-16T03:46:19;97654.39;;;22.12;28.27
77212;BME280;66206;0.000;0.000;2023-04-16T03:48:46;97654.27;;;22.01;28.25
77212;BME280;66206;0.000;0.000;2023-04-16T03:51:12;97652.22;;;22.03;28.27
77212;BME280;66206;0.000;0.000;2023-04-16T03:53:39;97650.74;;;22.10;28.21
77212;BME280;66206;0.000;0.000;2023-04-16T03:56:06;97650.68;;;22.16;28.24
77212;BME280;66206;0.000;0.000;2023-04-16T03:58:32;97653.61;;;22.21;28.17
77212;BME280;66206;0.000;0.000;2023-04-16T04:00:59;97654.37;;;22.13;28.21
77212;BME280;66206;0.000;0.000;2023-04-16T04:03:25;97656.04;;;22.17;28.28
77212;BME280;66206;0.000;0.000;2023-04-16T04:05:52;97657.83;;;22.06;28.28
77212;BME280;66206;0.000;0.000;2023-04-16T04:08:19;97658.63;;;22.19;28.25
77212;BME280;66206;0.000;0.000;2023-04-16T04:10:45;97662.12;;;22.13;28.15
77212;BME280;66206;0.000;0.000;2023-04-16T04:13:12;97665.21;;;22.29;28.14
77212;BME280;66206;0.000;0.000;2023-04-16T04:15:38;97667.63;;;22.19;28.09
77212;BME280;66206;0.000;0.000;2023-04-16T04:18:05;97667.73;;;22.03;28.25
77212;BME280;66206;0.000;0.000;2023-04-16T04:20:31;97672.38;;;22.04;28.28
77212;BME280;66206;0.000;0.000;2023-04-16T04:22:58;97672.66;;;22.23;28.18
77212;BME280;66206;0.000;0.000;2023-04-16T04:25:25;97675.54;;;22.08;28.28
77212;BME280;66206;0.000;0.000;2023-04-16T04:27:51;97673.81;;;22.05;28.25
77212;BME280;66206;0.000;0.000;2023-04-16T04:30:18;97675.95;;;22.21;28.13
77212;BME280;66206;0.000;0.000;2023-04-16T04:32:44;97675.37;;;22.12;28.23
77212;BME280;66206;0.000;0.000;2023-04-16T04:35:11;97678.35;;;22.05;28.24
77212;BME280;66206;0.000;0.000;2023-04-16T04:37:38;97680.96;;;22.22;28.21
77212;BME280;66206;0.000;0.000;2023-04-16T04:40:05;97680.84;;;22.07;28.21
77212;BME280;66206;0.000;0.000;2023-04-16T04:42:31;97683.43;;;22.03;28.31
77212;BME280;66206;0.000;0.000;2023-04-16T04:44:58;97686.79;;;22.06;28.22
77212;BME280;66206;0.000;0.000;2023-04-16T04:47:25;97688.49;;;22.11;28.28
77212;BME280;66206;0.000;0.000;2023-04-16T04:49:51;97690.46;;;21.94;28.35
77212;BME280;66206;0.000;0.000;2023-04-16T04:52:18;97690.03;;;21.94;28.33
77212;BME280;66206;0.000;0.000;2023-04-16T04:54:45;97694.09;;;22.20;28.20
77212;BME280;66206;0.000;0.000;2023-04-16T04:57:12;97695.05;;;22.04;28.20
77212;BME280;66206;0.000;0.000;2023-04-16T04:59:38;97694.18;;;22.01;28.37
77212;BME280;66206;0.000;0.000;2023-04-16T05:02:05;97697.52;;;21.94;28.40
77212;BME280;66206;0.000;0.000;2023-04-16T05:04:31;97697.31;;;22.11;28.20
77212;BME280;66206;0.000;0.000;2023-04-16T05:06:58;97697.88;;;21.90;28.36
77212;BME280;66206;0.000;0.000;2023-04-16T05:09:24;97699.89;;;21.96;28.35
77212;BME280;66206;0.000;0.000;2023-04-16T05:11:51;97703.61;;;22.01;28.29
77212;BME280;66206;0.000;0.000;2023-04-16T05:14:18;97708.56;;;21.96;28.43
77212;BME280;66206;0.000;0.000;2023-04-16T05:16:44;97706.03;;;21.90;28.25
77212;BME280;66206;0.000;0.000;2023-04-16T05:19:11;97708.70;;;21.92;28.31
77212;BME280;66206;0.000;0.000;2023-04-16T05:21:37;97711.42;;;22.08;28.29
77212;BME280;66206;0.000;0.000;2023-04-16T05:24:05;97716.81;;;22.05;28.29
77212;BME280;66206;0.000;0.000;2023-04-16T05:26:31;97718.31;;;21.95;28.29
77212;BME280;66206;0.000;0.000;2023-04-16T05:28:58;97717.37;;;21.94;28.27
77212;BME280;66206;0.000;0.000;2023-04-16T05:31:24;97720.27;;;21.98;28.26
77212;BME280;66206;0.000;0.000;2023-04-16T05:33:51;97723.37;;;22.09;28.14
77212;BME280;66206;0.000;0.000;2023-04-16T05:36:17;97723.20;;;22.05;28.29
77212;BME280;66206;0.000;0.000;2023-04-16T05:38:44;97726.67;;;21.85;28.36
77212;BME280;66206;0.000;0.000;2023-04-16T05:41:11;97729.48;;;21.97;28.30
77212;BME280;66206;0.000;0.000;2023-04-16T05:43:37;97731.06;;;22.07;28.24
77212;BME280;66206;0.000;0.000;2023-04-16T05:46:04;97733.57;;;21.95;28.26
77212;BME280;66206;0.000;0.000;2023-04-16T05:48:30;97737.04;;;21.85;28.30
77212;BME280;66206;0.000;0.000;2023-04-16T05:50:57;97736.68;;;21.99;28.31
77212;BME280;66206;0.000;0.000;2023-04-16T05:53:23;97738.90;;;22.05;28.23
77212;BME280;66206;0.000;0.000;2023-04-16T05:55:50;97741.84;;;22.08;28.18
77212;BME280;66206;0.000;0.000;2023-04-16T05:58:17;97745.09;;;22.15;28.16
77212;BME280;66206;0.000;0.000;2023-04-16T06:00:43;97745.36;;;22.15;28.18
77212;BME280;66206;0.000;0.000;2023-04-16T06:03:10;97748.04;;;22.03;28.24
77212;BME280;66206;0.000;0.000;2023-04-16T06:05:36;97750.03;;;22.10;28.21
77212;BME280;66206;0.000;0.000;2023-04-16T06:08:03;97751.55;;;21.97;28.31
77212;BME280;66206;0.000;0.000;2023-04-16T06:10:30;97750.61;;;21.98;28.24
77212;BME280;66206;0.000;0.000;2023-04-16T06:12:56;97757.18;;;21.97;28.29
77212;BME280;66206;0.000;0.000;2023-04-16T06:15:23;97757.73;;;22.11;28.23
77212;BME280;66206;0.000;0.000;2023-04-16T06:17:49;97758.95;;;22.00;28.27
77212;BME280;66206;0.000;0.000;2023-04-16T06:20:16;97760.17;;;22.18;28.16
77212;BME280;66206;0.000;0.000;2023-04-16T06:22:43;97761.79;;;22.07;28.15
77212;BME280;66206;0.000;0.000;2023-04-16T06:25:09;97763.33;;;22.06;28.22
77212;BME280;66206;0.000;0.000;2023-04-16T06:27:36;97764.62;;;22.04;28.24
77212;BME280;66206;0.000;0.000;2023-04-16T06:30:03;97762.88;;;22.02;28.26
77212;BME280;66206;0.000;0.000;2023-04-16T06:32:29;97764.16;;;22.00;28.26
77212;BME280;66206;0.000;0.000;2023-04-16T06:34:56;97767.03;;;22.01;28.29
77212;BME280;66206;0.000;0.000;2023-04-16T06:37:23;97771.12;;;22.08;28.25
77212;BME280;66206;0.000;0.000;2023-04-16T06:39:49;97772.16;;;22.11;28.22
77212;BME280;66206;0.000;0.000;2023-04-16T06:42:16;97776.44;;;22.16;28.18
77212;BME280;66206;0.000;0.000;2023-04-16T06:44:43;97779.50;;;22.08;28.18
77212;BME280;66206;0.000;0.000;2023-04-16T06:47:09;97783.13;;;21.97;28.27
77212;BME280;66206;0.000;0.000;2023-04-16T06:49:36;97784.20;;;22.13;28.18
77212;BME280;66206;0.000;0.000;2023-04-16T06:52:02;97784.29;;;22.06;28.20
77212;BME280;66206;0.000;0.000;2023-04-16T06:54:29;97783.79;;;21.97;28.17
77212;BME280;66206;0.000;0.000;2023-04-16T06:56:56;97785.56;;;22.04;28.22
77212;BME280;66206;0.000;0.000;2023-04-16T06:59:22;97787.66;;;22.09;28.21
77212;BME280;66206;0.000;0.000;2023-04-16T07:01:50;97789.65;;;22.05;28.18
77212;BME280;66206;0.000;0.000;2023-04-16T07:04:16;97795.79;;;22.08;28.15
77212;BME280;66206;0.000;0.000;2023-04-16T07:06:43;97796.66;;;22.05;28.26
77212;BME280;66206;0.000;0.000;2023-04-16T07:09:10;97801.21;;;21.90;28.40
77212;BME280;66206;0.000;0.000;2023-04-16T07:11:36;97798.13;;;21.95;28.30
77212;BME280;66206;0.000;0.000;2023-04-16T07:14:03;97801.48;;;21.92;28.26
77212;BME280;66206;0.000;0.000;2023-04-16T07:16:30;97800.77;;;21.97;28.32
77212;BME280;66206;0.000;0.000;2023-04-16T07:18:56;97801.19;;;21.92;28.32
77212;BME280;66206;0.000;0.000;2023-04-16T07:21:23;97802.93;;;22.00;28.24
77212;BME280;66206;0.000;0.000;2023-04-16T07:23:50;97802.63;;;22.15;28.14
77212;BME280;66206;0.000;0.000;2023-04-16T07:26:16;97802.40;;;21.92;28.35
77212;BME280;66206;0.000;0.000;2023-04-16T07:28:43;97806.22;;;21.78;28.88
77212;BME280;66206;0.000;0.000;2023-04-16T07:31:09;97809.18;;;21.61;29.64
77212;BME280;66206;0.000;0.000;2023-04-16T07:33:36;97811.55;;;21.60;30.07
77212;BME280;66206;0.000;0.000;2023-04-16T07:36:03;97815.10;;;21.65;29.94
77212;BME280;66206;0.000;0.000;2023-04-16T07:38:29;97814.78;;;21.47;30.20
77212;BME280;66206;0.000;0.000;2023-04-16T07:40:56;97817.69;;;21.48;30.08
77212;BME280;66206;0.000;0.000;2023-04-16T07:43:23;97817.60;;;21.65;30.01
77212;BME280;66206;0.000;0.000;2023-04-16T07:45:49;97814.76;;;21.67;29.95
77212;BME280;66206;0.000;0.000;2023-04-16T07:48:16;97819.48;;;21.81;29.81
77212;BME280;66206;0.000;0.000;2023-04-16T07:50:42;97815.89;;;21.71;29.86
77212;BME280;66206;0.000;0.000;2023-04-16T07:53:09;97818.14;;;21.68;29.95
77212;BME280;66206;0.000;0.000;2023-04-16T07:55:36;97819.56;;;21.81;29.90
77212;BME280;66206;0.000;0.000;2023-04-16T07:58:02;97812.31;;;22.07;29.86
77212;BME280;66206;0.000;0.000;2023-04-16T08:00:29;97817.87;;;21.58;30.14
77212;BME280;66206;0.000;0.000;2023-04-16T08:02:56;97821.69;;;21.71;30.70
77212;BME280;66206;0.000;0.000;2023-04-16T08:05:22;97819.85;;;21.77;30.46
77212;BME280;66206;0.000;0.000;2023-04-16T08:07:49;97817.97;;;22.32;29.82
77212;BME280;66206;0.000;0.000;2023-04-16T08:10:15;97822.49;;;22.53;29.62
77212;BME280;66206;0.000;0.000;2023-04-16T08:12:42;97822.04;;;22.55;29.56
77212;BME280;66206;0.000;0.000;2023-04-16T08:15:09;97824.64;;;22.73;29.32
77212;BME280;66206;0.000;0.000;2023-04-16T08:17:35;97828.98;;;22.68;29.35
77212;BME280;66206;0.000;0.000;2023-04-16T08:20:02;97832.63;;;22.79;29.30
77212;BME280;66206;0.000;0.000;2023-04-16T08:22:29;97834.36;;;22.82;29.21
77212;BME280;66206;0.000;0.000;2023-04-16T08:24:56;97837.02;;;22.94;29.06
77212;BME280;66206;0.000;0.000;2023-04-16T08:27:22;97839.41;;;23.10;28.96
77212;BME280;66206;0.000;0.000;2023-04-16T08:29:49;97841.62;;;23.31;28.62
77212;BME280;66206;0.000;0.000;2023-04-16T08:32:15;97843.58;;;23.40;28.53
77212;BME280;66206;0.000;0.000;2023-04-16T08:34:42;97844.22;;;23.12;28.68
77212;BME280;66206;0.000;0.000;2023-04-16T08:37:09;97847.78;;;23.35;28.65
77212;BME280;66206;0.000;0.000;2023-04-16T08:39:35;97850.87;;;23.33;28.69
77212;BME280;66206;0.000;0.000;2023-04-16T08:42:03;97854.96;;;23.58;28.26
77212;BME280;66206;0.000;0.000;2023-04-16T08:44:31;97854.14;;;23.44;28.30
77212;BME280;66206;0.000;0.000;2023-04-16T08:46:59;97861.30;;;23.59;28.31
77212;BME280;66206;0.000;0.000;2023-04-16T08:49:26;97861.00;;;23.57;28.25
77212;BME280;66206;0.000;0.000;2023-04-16T08:51:53;97861.74;;;23.43;28.47
77212;BME280;66206;0.000;0.000;2023-04-16T08:54:27;97863.55;;;23.06;28.82
77212;BME280;66206;0.000;0.000;2023-04-16T08:56:45;97864.48;;;23.53;28.37
77212;BME280;66206;0.000;0.000;2023-04-16T08:59:13;97863.69;;;23.53;28.16
77212;BME280;66206;0.000;0.000;2023-04-16T09:01:40;97866.87;;;23.66;28.08
77212;BME280;66206;0.000;0.000;2023-04-16T09:04:06;97865.85;;;23.48;28.17
77212;BME280;66206;0.000;0.000;2023-04-16T09:06:34;97867.79;;;23.53;28.25
77212;BME280;66206;0.000;0.000;2023-04-16T09:09:01;97873.40;;;23.51;28.26
77212;BME280;66206;0.000;0.000;2023-04-16T09:11:29;97875.46;;;23.53;28.39
77212;BME280;66206;0.000;0.000;2023-04-16T09:13:56;97879.70;;;23.52;28.38
77212;BME280;66206;0.000;0.000;2023-04-16T09:16:23;97882.93;;;23.49;28.21
77212;BME280;66206;0.000;0.000;2023-04-16T09:18:50;97885.11;;;23.64;28.19
77212;BME280;66206;0.000;0.000;2023-04-16T09:21:17;97888.90;;;23.74;27.91
77212;BME280;66206;0.000;0.000;2023-04-16T09:23:45;97890.40;;;23.66;28.04
77212;BME280;66206;0.000;0.000;2023-04-16T09:26:12;97891.45;;;23.82;27.78
77212;BME280;66206;0.000;0.000;2023-04-16T09:28:40;97889.50;;;23.78;27.91
77212;BME280;66206;0.000;0.000;2023-04-16T09:31:07;97893.83;;;24.00;27.73
77212;BME280;66206;0.000;0.000;2023-04-16T09:33:34;97888.59;;;23.74;27.81
77212;BME280;66206;0.000;0.000;2023-04-16T09:36:00;97891.71;;;23.48;28.16
77212;BME280;66206;0.000;0.000;2023-04-16T09:38:29;97894.82;;;23.46;28.46
77212;BME280;66206;0.000;0.000;2023-04-16T09:41:04;97897.91;;;23.37;28.37
77212;BME280;66206;0.000;0.000;2023-04-16T09:43:20;97899.99;;;23.73;27.98
77212;BME280;66206;0.000;0.000;2023-04-16T09:45:47;97900.72;;;23.57;28.09
77212;BME280;66206;0.000;0.000;2023-04-16T09:48:14;97901.41;;;23.53;28.15
77212;BME280;66206;0.000;0.000;2023-04-16T09:50:45;97903.96;;;23.31;28.23
77212;BME280;66206;0.000;0.000;2023-04-16T09:53:10;97905.02;;;22.61;29.24
77212;BME280;66206;0.000;0.000;2023-04-16T09:55:37;97909.28;;;22.64;29.19
77212;BME280;66206;0.000;0.000;2023-04-16T09:58:03;97909.60;;;22.69;29.12
77212;BME280;66206;0.000;0.000;2023-04-16T10:00:30;97911.91;;;22.76;29.19
77212;BME280;66206;0.000;0.000;2023-04-16T10:03:04;97914.96;;;22.47;29.39
77212;BME280;66206;0.000;0.000;2023-04-16T10:05:25;97918.93;;;22.40;29.35
77212;BME280;66206;0.000;0.000;2023-04-16T10:07:52;97921.06;;;22.13;29.66
77212;BME280;66206;0.000;0.000;2023-04-16T10:10:19;97922.54;;;23.04;29.23
77212;BME280;66206;0.000;0.000;2023-04-16T10:12:46;97925.25;;;22.45;29.76
77212;BME280;66206;0.000;0.000;2023-04-16T10:15:12;97926.98;;;22.67;29.98
77212;BME280;66206;0.000;0.000;2023-04-16T10:17:40;97933.04;;;22.55;29.88
77212;BME280;66206;0.000;0.000;2023-04-16T10:20:07;97928.84;;;22.74;29.56
77212;BME280;66206;0.000;0.000;2023-04-16T10:22:34;97935.01;;;22.71;30.16
77212;BME280;66206;0.000;0.000;2023-04-16T10:25:01;97938.68;;;22.41;30.18
77212;BME280;66206;0.000;0.000;2023-04-16T10:27:29;97937.61;;;22.33;30.27
77212;BME280;66206;0.000;0.000;2023-04-16T10:29:55;97937.46;;;22.17;30.44
77212;BME280;66206;0.000;0.000;2023-04-16T10:32:22;97935.82;;;22.26;30.42
77212;BME280;66206;0.000;0.000;2023-04-16T10:34:50;97937.58;;;22.21;30.45
77212;BME280;66206;0.000;0.000;2023-04-16T10:37:17;97940.79;;;22.15;30.56
77212;BME280;66206;0.000;0.000;2023-04-16T10:39:43;97942.87;;;22.23;30.50
77212;BME280;66206;0.000;0.000;2023-04-16T10:42:11;97943.02;;;22.12;30.56
77212;BME280;66206;0.000;0.000;2023-04-16T10:44:38;97943.88;;;21.99;30.71
77212;BME280;66206;0.000;0.000;2023-04-16T10:47:08;97945.39;;;22.07;30.69
77212;BME280;66206;0.000;0.000;2023-04-16T10:49:35;97944.32;;;21.89;30.94
77212;BME280;66206;0.000;0.000;2023-04-16T10:52:06;97947.11;;;21.87;30.90
77212;BME280;66206;0.000;0.000;2023-04-16T10:54:28;97951.00;;;21.84;30.95
77212;BME280;66206;0.000;0.000;2023-04-16T10:56:56;97952.88;;;21.83;31.01
77212;BME280;66206;0.000;0.000;2023-04-16T10:59:23;97955.12;;;21.74;31.02
77212;BME280;66206;0.000;0.000;2023-04-16T11:01:50;97956.38;;;21.62;31.12
77212;BME280;66206;0.000;0.000;2023-04-16T11:04:26;97954.46;;;21.70;31.01
77212;BME280;66206;0.000;0.000;2023-04-16T11:06:59;97957.81;;;21.63;31.13
77212;BME280;66206;0.000;0.000;2023-04-16T11:09:41;97959.17;;;21.53;31.10
77212;BME280;66206;0.000;0.000;2023-04-16T11:11:41;97963.10;;;21.56;31.09
77212;BME280;66206;0.000;0.000;2023-04-16T11:14:08;97964.76;;;21.46;31.21
77212;BME280;66206;0.000;0.000;2023-04-16T11:16:36;97968.51;;;21.32;31.45
77212;BME280;66206;0.000;0.000;2023-04-16T11:19:05;97965.85;;;21.27;31.40
77212;BME280;66206;0.000;0.000;2023-04-16T11:21:32;97966.68;;;21.32;31.40
77212;BME280;66206;0.000;0.000;2023-04-16T11:23:59;97964.23;;;21.30;31.30
77212;BME280;66206;0.000;0.000;2023-04-16T11:26:26;97968.04;;;21.50;31.19
77212;BME280;66206;0.000;0.000;2023-04-16T11:28:53;97967.69;;;21.38;31.20
77212;BME280;66206;0.000;0.000;2023-04-16T11:31:20;97971.04;;;21.20;31.49
77212;BME280;66206;0.000;0.000;2023-04-16T11:33:47;97973.09;;;21.34;31.29
77212;BME280;66206;0.000;0.000;2023-04-16T11:36:14;97973.04;;;21.38;31.25
77212;BME280;66206;0.000;0.000;2023-04-16T11:38:40;97974.77;;;21.33;31.19
77212;BME280;66206;0.000;0.000;2023-04-16T11:41:07;97976.77;;;21.50;31.03
77212;BME280;66206;0.000;0.000;2023-04-16T11:43:34;97974.73;;;21.27;31.29
77212;BME280;66206;0.000;0.000;2023-04-16T11:46:01;97976.12;;;21.46;30.97
77212;BME280;66206;0.000;0.000;2023-04-16T11:48:44;97975.55;;;21.64;30.97
77212;BME280;66206;0.000;0.000;2023-04-16T11:50:55;97977.38;;;21.57;30.94
77212;BME280;66206;0.000;0.000;2023-04-16T11:53:22;97980.32;;;21.27;31.27
77212;BME280;66206;0.000;0.000;2023-04-16T11:55:49;97978.14;;;21.28;31.23
77212;BME280;66206;0.000;0.000;2023-04-16T11:58:15;97980.37;;;21.32;31.22
77212;BME280;66206;0.000;0.000;2023-04-16T12:00:42;97982.54;;;21.36;31.28
77212;BME280;66206;0.000;0.000;2023-04-16T12:03:09;97987.45;;;21.27;31.23
77212;BME280;66206;0.000;0.000;2023-04-16T12:05:36;97987.34;;;21.28;31.28
77212;BME280;66206;0.000;0.000;2023-04-16T12:08:03;97988.75;;;21.20;31.37
77212;BME280;66206;0.000;0.000;2023-04-16T12:10:31;97986.40;;;21.28;31.32
77212;BME280;66206;0.000;0.000;2023-04-16T12:13:14;97986.03;;;21.25;31.24
77212;BME280;66206;0.000;0.000;2023-04-16T12:15:37;97983.74;;;21.36;31.17
77212;BME280;66206;0.000;0.000;2023-04-16T12:18:05;97986.03;;;21.03;31.58
77212;BME280;66206;0.000;0.000;2023-04-16T12:20:21;97986.83;;;21.18;31.35
77212;BME280;66206;0.000;0.000;2023-04-16T12:22:48;97986.78;;;21.26;31.30
77212;BME280;66206;0.000;0.000;2023-04-16T12:25:15;97987.72;;;21.31;31.21
77212;BME280;66206;0.000;0.000;2023-04-16T12:27:43;97987.66;;;21.52;30.90
77212;BME280;66206;0.000;0.000;2023-04-16T12:30:10;97991.39;;;21.50;30.93
77212;BME280;66206;0.000;0.000;2023-04-16T12:32:37;97997.72;;;21.28;31.21
77212;BME280;66206;0.000;0.000;2023-04-16T12:35:03;98000.47;;;21.17;31.20
77212;BME280;66206;0.000;0.000;2023-04-16T12:37:30;98001.19;;;21.26;31.18
77212;BME280;66206;0.000;0.000;2023-04-16T12:39:57;97999.12;;;21.37;31.11
77212;BME280;66206;0.000;0.000;2023-04-16T12:42:23;98002.69;;;21.36;31.04
77212;BME280;66206;0.000;0.000;2023-04-16T12:44:50;98002.25;;;21.40;30.95
77212;BME280;66206;0.000;0.000;2023-04-16T12:47:16;98003.27;;;21.33;31.06
77212;BME280;66206;0.000;0.000;2023-04-16T12:49:43;98003.78;;;21.33;30.99
77212;BME280;66206;0.000;0.000;2023-04-16T12:52:10;98005.86;;;21.17;31.20
77212;BME280;66206;0.000;0.000;2023-04-16T12:54:36;98005.80;;;21.48;30.86
77212;BME280;66206;0.000;0.000;2023-04-16T12:57:03;98008.54;;;21.22;31.16
77212;BME280;66206;0.000;0.000;2023-04-16T12:59:30;98008.63;;;21.42;30.97
77212;BME280;66206;0.000;0.000;2023-04-16T13:01:56;98005.26;;;21.21;31.18
77212;BME280;66206;0.000;0.000;2023-04-16T13:04:23;98004.99;;;21.28;30.98
77212;BME280;66206;0.000;0.000;2023-04-16T13:06:50;98002.90;;;21.27;30.90